sensor_id;sensor_type;location;lat;lon;timestamp;temperature;humidity
81220;DHT22;70690;52.494;13.410;2023-07-30T00:02:04;19.40;78.90
81220;DHT22;70690;52.494;13.410;2023-07-30T00:04:30;19.30;79.30
81220;DHT22;70690;52.494;13.410;2023-07-30T00:06:56;19.30;79.30
81220;DHT22;70690;52.494;13.410;2023-07-30T00:09:21;19.30;79.90
81220;DHT22;70690;52.494;13.410;2023-07-30T00:11:47;19.30;79.50
81220;DHT22;70690;52.494;13.410;2023-07-30T00:14:13;19.20;79.80
81220;DHT22;70690;52.494;13.410;2023-07-30T00:16:38;19.20;78.80
81220;DHT22;70690;52.494;13.410;2023-07-30T00:19:04;19.10;79.60
81220;DHT22;70690;52.494;13.410;2023-07-30T00:21:30;19.10;79.40
81220;DHT22;70690;52.494;13.410;2023-07-30T00:23:55;19.00;79.40
81220;DHT22;70690;52.494;13.410;2023-07-30T00:26:21;19.10;79.60
81220;DHT22;70690;52.494;13.410;2023-07-30T00:28:47;19.00;79.40
81220;DHT22;70690;52.494;13.410;2023-07-30T00:31:12;19.00;79.40
81220;DHT22;70690;52.494;13.410;2023-07-30T00:33:38;19.00;79.30
81220;DHT22;70690;52.494;13.410;2023-07-30T00:36:04;19.10;79.30
81220;DHT22;70690;52.494;13.410;2023-07-30T00:38:30;19.20;78.80
81220;DHT22;70690;52.494;13.410;2023-07-30T00:40:55;19.20;78.70
81220;DHT22;70690;52.494;13.410;2023-07-30T00:43:21;19.10;78.80
81220;DHT22;70690;52.494;13.410;2023-07-30T00:45:47;18.90;78.90
81220;DHT22;70690;52.494;13.410;2023-07-30T00:48:14;19.10;78.80
81220;DHT22;70690;52.494;13.410;2023-07-30T00:50:40;19.00;79.10
81220;DHT22;70690;52.494;13.410;2023-07-30T00:53:09;18.90;79.60
81220;DHT22;70690;52.494;13.410;2023-07-30T00:55:35;18.80;79.60
81220;DHT22;70690;52.494;13.410;2023-07-30T00:58:02;18.80;79.60
81220;DHT22;70690;52.494;13.410;2023-07-30T01:00:29;18.80;79.60
81220;DHT22;70690;52.494;13.410;2023-07-30T01:02:55;18.90;78.80
81220;DHT22;70690;52.494;13.410;2023-07-30T01:05:21;18.80;79.00
81220;DHT22;70690;52.494;13.410;2023-07-30T01:07:47;18.70;79.20
81220;DHT22;70690;52.494;13.410;2023-07-30T01:10:13;18.80;78.90
81220;DHT22;70690;52.494;13.410;2023-07-30T01:12:39;18.90;78.50
81220;DHT22;70690;52.494;13.410;2023-07-30T01:15:07;18.90;78.60
81220;DHT22;70690;52.494;13.410;2023-07-30T01:17:33;18.80;78.60
81220;DHT22;70690;52.494;13.410;2023-07-30T01:19:59;18.70;78.90
81220;DHT22;70690;52.494;13.410;2023-07-30T01:22:25;18.70;79.00
81220;DHT22;70690;52.494;13.410;2023-07-30T01:24:51;18.80;78.30
81220;DHT22;70690;52.494;13.410;2023-07-30T01:27:26;18.60;78.70
81220;DHT22;70690;52.494;13.410;2023-07-30T01:32:40;18.60;78.70
81220;DHT22;70690;52.494;13.410;2023-07-30T01:35:08;18.50;78.90
81220;DHT22;70690;52.494;13.410;2023-07-30T01:37:34;18.60;79.00
81220;DHT22;70690;52.494;13.410;2023-07-30T01:40:01;18.50;78.70
81220;DHT22;70690;52.494;13.410;2023-07-30T01:42:30;18.60;78.60
81220;DHT22;70690;52.494;13.410;2023-07-30T01:44:57;18.50;79.10
81220;DHT22;70690;52.494;13.410;2023-07-30T01:47:22;18.50;79.10
81220;DHT22;70690;52.494;13.410;2023-07-30T01:49:48;18.50;78.90
81220;DHT22;70690;52.494;13.410;2023-07-30T01:52:14;18.30;79.50
81220;DHT22;70690;52.494;13.410;2023-07-30T01:54:40;18.30;79.80
81220;DHT22;70690;52.494;13.410;2023-07-30T01:57:06;18.30;80.20
81220;DHT22;70690;52.494;13.410;2023-07-30T01:59:31;18.20;80.30
81220;DHT22;70690;52.494;13.410;2023-07-30T02:01:57;18.20;80.30
81220;DHT22;70690;52.494;13.410;2023-07-30T02:04:23;18.20;80.20
81220;DHT22;70690;52.494;13.410;2023-07-30T02:06:48;18.20;80.00
81220;DHT22;70690;52.494;13.410;2023-07-30T02:09:14;18.20;79.90
81220;DHT22;70690;52.494;13.410;2023-07-30T02:11:40;18.30;79.90
81220;DHT22;70690;52.494;13.410;2023-07-30T02:14:05;18.20;79.90
81220;DHT22;70690;52.494;13.410;2023-07-30T02:16:31;18.20;80.00
81220;DHT22;70690;52.494;13.410;2023-07-30T02:18:57;18.30;79.10
81220;DHT22;70690;52.494;13.410;2023-07-30T02:21:22;18.30;78.60
81220;DHT22;70690;52.494;13.410;2023-07-30T02:23:48;18.20;79.10
81220;DHT22;70690;52.494;13.410;2023-07-30T02:26:14;18.10;79.70
81220;DHT22;70690;52.494;13.410;2023-07-30T02:28:39;18.20;79.50
81220;DHT22;70690;52.494;13.410;2023-07-30T02:31:05;18.20;78.70
81220;DHT22;70690;52.494;13.410;2023-07-30T02:33:31;18.20;79.10
81220;DHT22;70690;52.494;13.410;2023-07-30T02:35:56;18.20;79.10
81220;DHT22;70690;52.494;13.410;2023-07-30T02:38:22;18.10;79.20
81220;DHT22;70690;52.494;13.410;2023-07-30T02:40:48;18.10;79.60
81220;DHT22;70690;52.494;13.410;2023-07-30T02:43:13;18.10;80.00
81220;DHT22;70690;52.494;13.410;2023-07-30T02:45:39;18.00;80.20
81220;DHT22;70690;52.494;13.410;2023-07-30T02:48:05;18.10;80.20
81220;DHT22;70690;52.494;13.410;2023-07-30T02:50:30;18.10;79.70
81220;DHT22;70690;52.494;13.410;2023-07-30T02:52:56;18.10;79.40
81220;DHT22;70690;52.494;13.410;2023-07-30T02:55:22;18.10;79.70
81220;DHT22;70690;52.494;13.410;2023-07-30T02:57:47;18.00;79.90
81220;DHT22;70690;52.494;13.410;2023-07-30T03:00:13;18.00;80.20
81220;DHT22;70690;52.494;13.410;2023-07-30T03:02:40;17.90;80.20
81220;DHT22;70690;52.494;13.410;2023-07-30T03:05:06;17.90;80.60
81220;DHT22;70690;52.494;13.410;2023-07-30T03:07:32;17.90;80.70
81220;DHT22;70690;52.494;13.410;2023-07-30T03:09:58;17.90;80.50
81220;DHT22;70690;52.494;13.410;2023-07-30T03:12:24;17.90;80.40
81220;DHT22;70690;52.494;13.410;2023-07-30T03:14:50;17.90;80.80
81220;DHT22;70690;52.494;13.410;2023-07-30T03:17:16;17.90;80.70
81220;DHT22;70690;52.494;13.410;2023-07-30T03:19:41;17.90;80.60
81220;DHT22;70690;52.494;13.410;2023-07-30T03:22:07;18.10;79.50
81220;DHT22;70690;52.494;13.410;2023-07-30T03:24:33;18.00;79.70
81220;DHT22;70690;52.494;13.410;2023-07-30T03:26:58;18.00;79.70
81220;DHT22;70690;52.494;13.410;2023-07-30T03:29:24;18.00;79.30
81220;DHT22;70690;52.494;13.410;2023-07-30T03:31:50;17.90;79.70
81220;DHT22;70690;52.494;13.410;2023-07-30T03:34:15;17.90;80.00
81220;DHT22;70690;52.494;13.410;2023-07-30T03:36:41;17.90;80.10
81220;DHT22;70690;52.494;13.410;2023-07-30T03:39:07;17.90;80.20
81220;DHT22;70690;52.494;13.410;2023-07-30T03:41:33;17.80;80.40
81220;DHT22;70690;52.494;13.410;2023-07-30T03:43:58;17.90;80.20
81220;DHT22;70690;52.494;13.410;2023-07-30T03:46:24;17.90;80.10
81220;DHT22;70690;52.494;13.410;2023-07-30T03:48:50;18.00;79.90
81220;DHT22;70690;52.494;13.410;2023-07-30T03:51:15;17.90;80.10
81220;DHT22;70690;52.494;13.410;2023-07-30T03:53:41;18.00;79.90
81220;DHT22;70690;52.494;13.410;2023-07-30T03:56:08;18.00;79.80
81220;DHT22;70690;52.494;13.410;2023-07-30T03:58:34;18.00;79.60
81220;DHT22;70690;52.494;13.410;2023-07-30T04:01:01;17.90;79.70
81220;DHT22;70690;52.494;13.410;2023-07-30T04:03:36;18.00;79.50
81220;DHT22;70690;52.494;13.410;2023-07-30T04:06:02;18.00;79.60
81220;DHT22;70690;52.494;13.410;2023-07-30T04:08:28;17.80;79.50
81220;DHT22;70690;52.494;13.410;2023-07-30T04:10:55;17.90;79.70
81220;DHT22;70690;52.494;13.410;2023-07-30T04:13:20;17.80;79.50
81220;DHT22;70690;52.494;13.410;2023-07-30T04:15:48;17.90;79.40
81220;DHT22;70690;52.494;13.410;2023-07-30T04:18:13;18.00;78.90
81220;DHT22;70690;52.494;13.410;2023-07-30T04:20:39;18.00;79.00
81220;DHT22;70690;52.494;13.410;2023-07-30T04:23:05;18.00;78.70
81220;DHT22;70690;52.494;13.410;2023-07-30T04:25:33;18.00;78.70
81220;DHT22;70690;52.494;13.410;2023-07-30T04:27:58;18.10;78.40
81220;DHT22;70690;52.494;13.410;2023-07-30T04:30:24;18.10;78.30
81220;DHT22;70690;52.494;13.410;2023-07-30T04:32:50;17.90;78.70
81220;DHT22;70690;52.494;13.410;2023-07-30T04:35:16;18.00;78.80
81220;DHT22;70690;52.494;13.410;2023-07-30T04:37:41;18.00;78.60
81220;DHT22;70690;52.494;13.410;2023-07-30T04:40:08;18.10;78.20
81220;DHT22;70690;52.494;13.410;2023-07-30T04:42:34;18.20;78.30
81220;DHT22;70690;52.494;13.410;2023-07-30T04:44:59;18.10;78.20
81220;DHT22;70690;52.494;13.410;2023-07-30T04:47:25;18.20;77.80
81220;DHT22;70690;52.494;13.410;2023-07-30T04:50:03;18.30;77.30
81220;DHT22;70690;52.494;13.410;2023-07-30T04:52:49;18.20;77.30
81220;DHT22;70690;52.494;13.410;2023-07-30T04:55:15;18.20;77.40
81220;DHT22;70690;52.494;13.410;2023-07-30T04:57:41;18.20;77.40
81220;DHT22;70690;52.494;13.410;2023-07-30T05:00:07;18.30;77.60
81220;DHT22;70690;52.494;13.410;2023-07-30T05:02:33;18.40;77.60
81220;DHT22;70690;52.494;13.410;2023-07-30T05:04:58;18.50;76.90
81220;DHT22;70690;52.494;13.410;2023-07-30T05:07:24;18.50;76.40
81220;DHT22;70690;52.494;13.410;2023-07-30T05:09:50;18.50;76.30
81220;DHT22;70690;52.494;13.410;2023-07-30T05:12:15;18.40;75.80
81220;DHT22;70690;52.494;13.410;2023-07-30T05:14:41;18.50;75.80
81220;DHT22;70690;52.494;13.410;2023-07-30T05:17:07;18.50;75.90
81220;DHT22;70690;52.494;13.410;2023-07-30T05:19:32;18.50;75.50
81220;DHT22;70690;52.494;13.410;2023-07-30T05:21:58;18.50;75.80
81220;DHT22;70690;52.494;13.410;2023-07-30T05:24:27;18.60;75.40
81220;DHT22;70690;52.494;13.410;2023-07-30T05:26:53;18.70;75.10
81220;DHT22;70690;52.494;13.410;2023-07-30T05:29:19;18.80;74.30
81220;DHT22;70690;52.494;13.410;2023-07-30T05:31:45;18.80;74.00
81220;DHT22;70690;52.494;13.410;2023-07-30T05:34:10;18.80;74.10
81220;DHT22;70690;52.494;13.410;2023-07-30T05:36:36;18.90;74.10
81220;DHT22;70690;52.494;13.410;2023-07-30T05:39:04;19.00;73.60
81220;DHT22;70690;52.494;13.410;2023-07-30T05:41:30;19.20;73.30
81220;DHT22;70690;52.494;13.410;2023-07-30T05:43:56;19.30;72.10
81220;DHT22;70690;52.494;13.410;2023-07-30T05:46:22;19.30;71.80
81220;DHT22;70690;52.494;13.410;2023-07-30T05:48:48;19.40;71.80
81220;DHT22;70690;52.494;13.410;2023-07-30T05:51:14;19.40;71.80
81220;DHT22;70690;52.494;13.410;2023-07-30T05:53:40;19.50;71.30
81220;DHT22;70690;52.494;13.410;2023-07-30T05:56:06;19.60;70.50
81220;DHT22;70690;52.494;13.410;2023-07-30T05:58:32;19.60;71.00
81220;DHT22;70690;52.494;13.410;2023-07-30T06:00:57;19.50;71.10
81220;DHT22;70690;52.494;13.410;2023-07-30T06:03:23;19.50;71.40
81220;DHT22;70690;52.494;13.410;2023-07-30T06:05:49;19.50;71.50
81220;DHT22;70690;52.494;13.410;2023-07-30T06:08:15;19.50;71.40
81220;DHT22;70690;52.494;13.410;2023-07-30T06:10:41;19.70;70.90
81220;DHT22;70690;52.494;13.410;2023-07-30T06:13:06;19.80;70.20
81220;DHT22;70690;52.494;13.410;2023-07-30T06:15:33;19.80;70.20
81220;DHT22;70690;52.494;13.410;2023-07-30T06:18:01;19.80;70.80
81220;DHT22;70690;52.494;13.410;2023-07-30T06:20:27;19.90;70.70
81220;DHT22;70690;52.494;13.410;2023-07-30T06:22:53;20.00;70.30
81220;DHT22;70690;52.494;13.410;2023-07-30T06:25:20;20.20;69.00
81220;DHT22;70690;52.494;13.410;2023-07-30T06:27:46;20.30;68.30
81220;DHT22;70690;52.494;13.410;2023-07-30T06:30:11;20.40;67.80
81220;DHT22;70690;52.494;13.410;2023-07-30T06:32:37;20.50;67.80
81220;DHT22;70690;52.494;13.410;2023-07-30T06:35:03;20.40;67.70
81220;DHT22;70690;52.494;13.410;2023-07-30T06:37:29;20.50;67.80
81220;DHT22;70690;52.494;13.410;2023-07-30T06:39:55;20.60;67.80
81220;DHT22;70690;52.494;13.410;2023-07-30T06:42:21;20.70;67.90
81220;DHT22;70690;52.494;13.410;2023-07-30T06:44:46;21.00;67.70
81220;DHT22;70690;52.494;13.410;2023-07-30T06:47:12;21.10;66.90
81220;DHT22;70690;52.494;13.410;2023-07-30T06:49:38;21.30;65.60
81220;DHT22;70690;52.494;13.410;2023-07-30T06:52:04;21.40;65.40
81220;DHT22;70690;52.494;13.410;2023-07-30T06:54:29;21.30;65.80
81220;DHT22;70690;52.494;13.410;2023-07-30T06:56:55;21.40;65.40
81220;DHT22;70690;52.494;13.410;2023-07-30T06:59:21;21.50;65.10
81220;DHT22;70690;52.494;13.410;2023-07-30T07:01:46;21.60;64.90
81220;DHT22;70690;52.494;13.410;2023-07-30T07:04:12;21.50;64.30
81220;DHT22;70690;52.494;13.410;2023-07-30T07:06:38;21.20;65.10
81220;DHT22;70690;52.494;13.410;2023-07-30T07:09:04;21.20;66.30
81220;DHT22;70690;52.494;13.410;2023-07-30T07:11:29;21.30;66.00
81220;DHT22;70690;52.494;13.410;2023-07-30T07:13:55;21.40;66.20
81220;DHT22;70690;52.494;13.410;2023-07-30T07:16:21;21.40;65.70
81220;DHT22;70690;52.494;13.410;2023-07-30T07:18:46;21.40;65.50
81220;DHT22;70690;52.494;13.410;2023-07-30T07:21:14;21.50;65.80
81220;DHT22;70690;52.494;13.410;2023-07-30T07:23:39;21.50;65.90
81220;DHT22;70690;52.494;13.410;2023-07-30T07:26:05;21.60;65.60
81220;DHT22;70690;52.494;13.410;2023-07-30T07:28:31;21.50;66.40
81220;DHT22;70690;52.494;13.410;2023-07-30T07:30:57;21.60;65.80
81220;DHT22;70690;52.494;13.410;2023-07-30T07:33:22;21.60;66.00
81220;DHT22;70690;52.494;13.410;2023-07-30T07:35:48;21.50;66.70
81220;DHT22;70690;52.494;13.410;2023-07-30T07:38:14;21.60;66.10
81220;DHT22;70690;52.494;13.410;2023-07-30T07:40:40;21.50;66.10
81220;DHT22;70690;52.494;13.410;2023-07-30T07:43:07;21.60;66.30
81220;DHT22;70690;52.494;13.410;2023-07-30T07:45:34;21.80;66.40
81220;DHT22;70690;52.494;13.410;2023-07-30T07:48:00;21.90;65.20
81220;DHT22;70690;52.494;13.410;2023-07-30T07:50:25;22.00;65.30
81220;DHT22;70690;52.494;13.410;2023-07-30T07:52:51;22.00;65.70
81220;DHT22;70690;52.494;13.410;2023-07-30T07:55:17;22.10;65.80
81220;DHT22;70690;52.494;13.410;2023-07-30T07:57:43;22.20;64.80
81220;DHT22;70690;52.494;13.410;2023-07-30T08:00:08;22.30;64.70
81220;DHT22;70690;52.494;13.410;2023-07-30T08:02:34;22.30;65.60
81220;DHT22;70690;52.494;13.410;2023-07-30T08:05:00;22.50;64.50
81220;DHT22;70690;52.494;13.410;2023-07-30T08:07:26;22.70;63.40
81220;DHT22;70690;52.494;13.410;2023-07-30T08:09:52;22.80;62.30
81220;DHT22;70690;52.494;13.410;2023-07-30T08:12:19;22.80;63.00
81220;DHT22;70690;52.494;13.410;2023-07-30T08:14:45;22.90;63.80
81220;DHT22;70690;52.494;13.410;2023-07-30T08:17:11;22.80;62.20
81220;DHT22;70690;52.494;13.410;2023-07-30T08:19:38;22.70;62.80
81220;DHT22;70690;52.494;13.410;2023-07-30T08:22:04;22.80;63.40
81220;DHT22;70690;52.494;13.410;2023-07-30T08:24:29;22.60;62.90
81220;DHT22;70690;52.494;13.410;2023-07-30T08:26:55;22.70;62.60
81220;DHT22;70690;52.494;13.410;2023-07-30T08:29:21;22.70;62.00
81220;DHT22;70690;52.494;13.410;2023-07-30T08:31:46;22.80;61.20
81220;DHT22;70690;52.494;13.410;2023-07-30T08:34:13;23.00;61.20
81220;DHT22;70690;52.494;13.410;2023-07-30T08:36:39;22.80;60.90
81220;DHT22;70690;52.494;13.410;2023-07-30T08:39:05;22.90;61.20
81220;DHT22;70690;52.494;13.410;2023-07-30T08:41:31;22.90;60.70
81220;DHT22;70690;52.494;13.410;2023-07-30T08:43:57;23.30;58.70
81220;DHT22;70690;52.494;13.410;2023-07-30T08:46:22;23.40;58.60
81220;DHT22;70690;52.494;13.410;2023-07-30T08:48:48;23.30;57.50
81220;DHT22;70690;52.494;13.410;2023-07-30T08:51:15;23.30;57.90
81220;DHT22;70690;52.494;13.410;2023-07-30T08:53:42;23.20;57.70
81220;DHT22;70690;52.494;13.410;2023-07-30T08:56:09;23.10;58.00
81220;DHT22;70690;52.494;13.410;2023-07-30T08:58:35;23.20;58.00
81220;DHT22;70690;52.494;13.410;2023-07-30T09:01:06;23.10;56.80
81220;DHT22;70690;52.494;13.410;2023-07-30T09:03:36;23.40;55.90
81220;DHT22;70690;52.494;13.410;2023-07-30T09:06:03;23.40;55.60
81220;DHT22;70690;52.494;13.410;2023-07-30T09:08:29;23.60;56.00
81220;DHT22;70690;52.494;13.410;2023-07-30T09:10:55;23.60;54.70
81220;DHT22;70690;52.494;13.410;2023-07-30T09:13:22;23.60;55.60
81220;DHT22;70690;52.494;13.410;2023-07-30T09:15:50;23.80;55.00
81220;DHT22;70690;52.494;13.410;2023-07-30T09:18:19;23.70;52.80
81220;DHT22;70690;52.494;13.410;2023-07-30T09:20:45;23.70;52.20
81220;DHT22;70690;52.494;13.410;2023-07-30T09:23:12;23.60;53.60
81220;DHT22;70690;52.494;13.410;2023-07-30T09:25:38;23.80;53.40
81220;DHT22;70690;52.494;13.410;2023-07-30T09:28:05;23.90;54.70
81220;DHT22;70690;52.494;13.410;2023-07-30T09:30:32;23.80;53.40
81220;DHT22;70690;52.494;13.410;2023-07-30T09:32:59;23.60;53.00
81220;DHT22;70690;52.494;13.410;2023-07-30T09:35:26;23.70;50.30
81220;DHT22;70690;52.494;13.410;2023-07-30T09:37:59;23.80;49.70
81220;DHT22;70690;52.494;13.410;2023-07-30T09:40:33;23.60;51.30
81220;DHT22;70690;52.494;13.410;2023-07-30T09:42:58;23.60;52.00
81220;DHT22;70690;52.494;13.410;2023-07-30T09:45:27;23.50;51.50
81220;DHT22;70690;52.494;13.410;2023-07-30T09:47:54;23.50;51.10
81220;DHT22;70690;52.494;13.410;2023-07-30T09:50:21;23.40;51.40
81220;DHT22;70690;52.494;13.410;2023-07-30T09:52:48;23.40;51.60
81220;DHT22;70690;52.494;13.410;2023-07-30T09:55:15;23.40;50.70
81220;DHT22;70690;52.494;13.410;2023-07-30T09:57:41;23.60;51.50
81220;DHT22;70690;52.494;13.410;2023-07-30T10:00:07;23.90;51.30
81220;DHT22;70690;52.494;13.410;2023-07-30T10:02:41;24.10;50.70
81220;DHT22;70690;52.494;13.410;2023-07-30T10:05:14;24.00;49.80
81220;DHT22;70690;52.494;13.410;2023-07-30T10:07:44;23.90;50.00
81220;DHT22;70690;52.494;13.410;2023-07-30T10:10:11;24.00;49.40
81220;DHT22;70690;52.494;13.410;2023-07-30T10:12:38;24.20;50.20
81220;DHT22;70690;52.494;13.410;2023-07-30T10:15:07;24.20;49.60
81220;DHT22;70690;52.494;13.410;2023-07-30T10:17:33;24.00;50.00
81220;DHT22;70690;52.494;13.410;2023-07-30T10:22:45;24.00;47.80
81220;DHT22;70690;52.494;13.410;2023-07-30T10:25:12;24.30;46.70
81220;DHT22;70690;52.494;13.410;2023-07-30T10:27:39;24.20;47.90
81220;DHT22;70690;52.494;13.410;2023-07-30T10:30:21;24.30;47.60
81220;DHT22;70690;52.494;13.410;2023-07-30T10:35:42;24.00;48.00
81220;DHT22;70690;52.494;13.410;2023-07-30T10:38:18;24.10;48.10
81220;DHT22;70690;52.494;13.410;2023-07-30T10:41:07;24.20;47.40
81220;DHT22;70690;52.494;13.410;2023-07-30T10:43:41;24.20;48.00
81220;DHT22;70690;52.494;13.410;2023-07-30T10:46:10;24.40;48.60
81220;DHT22;70690;52.494;13.410;2023-07-30T10:48:37;24.60;46.30
81220;DHT22;70690;52.494;13.410;2023-07-30T10:51:05;24.70;46.30
81220;DHT22;70690;52.494;13.410;2023-07-30T10:53:31;24.70;46.40
81220;DHT22;70690;52.494;13.410;2023-07-30T10:55:59;24.60;47.30
81220;DHT22;70690;52.494;13.410;2023-07-30T10:58:30;24.70;47.10
81220;DHT22;70690;52.494;13.410;2023-07-30T11:00:56;24.50;46.70
81220;DHT22;70690;52.494;13.410;2023-07-30T11:03:26;24.70;47.00
81220;DHT22;70690;52.494;13.410;2023-07-30T11:05:55;24.50;46.70
81220;DHT22;70690;52.494;13.410;2023-07-30T11:08:41;24.70;46.80
81220;DHT22;70690;52.494;13.410;2023-07-30T11:11:09;24.80;44.80
81220;DHT22;70690;52.494;13.410;2023-07-30T11:13:40;24.80;44.80
81220;DHT22;70690;52.494;13.410;2023-07-30T11:16:07;24.80;45.50
81220;DHT22;70690;52.494;13.410;2023-07-30T11:18:34;24.80;45.40
81220;DHT22;70690;52.494;13.410;2023-07-30T11:21:07;24.90;46.30
81220;DHT22;70690;52.494;13.410;2023-07-30T11:23:34;25.10;46.50
81220;DHT22;70690;52.494;13.410;2023-07-30T11:26:04;25.30;43.70
81220;DHT22;70690;52.494;13.410;2023-07-30T11:31:03;25.30;41.00
81220;DHT22;70690;52.494;13.410;2023-07-30T11:33:52;25.00;37.50
81220;DHT22;70690;52.494;13.410;2023-07-30T11:36:21;25.00;38.70
81220;DHT22;70690;52.494;13.410;2023-07-30T11:38:51;25.10;40.20
81220;DHT22;70690;52.494;13.410;2023-07-30T11:41:23;25.10;40.40
81220;DHT22;70690;52.494;13.410;2023-07-30T11:43:49;25.40;40.90
81220;DHT22;70690;52.494;13.410;2023-07-30T11:46:18;25.50;39.50
81220;DHT22;70690;52.494;13.410;2023-07-30T11:48:47;25.50;39.20
81220;DHT22;70690;52.494;13.410;2023-07-30T11:51:27;25.50;39.90
81220;DHT22;70690;52.494;13.410;2023-07-30T11:53:55;25.80;40.10
81220;DHT22;70690;52.494;13.410;2023-07-30T11:56:31;25.90;39.40
81220;DHT22;70690;52.494;13.410;2023-07-30T12:01:26;26.20;40.30
81220;DHT22;70690;52.494;13.410;2023-07-30T12:03:59;26.30;39.20
81220;DHT22;70690;52.494;13.410;2023-07-30T12:06:45;27.00;38.10
81220;DHT22;70690;52.494;13.410;2023-07-30T12:09:18;27.40;37.30
81220;DHT22;70690;52.494;13.410;2023-07-30T12:11:58;27.90;36.50
81220;DHT22;70690;52.494;13.410;2023-07-30T12:14:29;28.60;35.00
81220;DHT22;70690;52.494;13.410;2023-07-30T12:17:07;28.80;35.60
81220;DHT22;70690;52.494;13.410;2023-07-30T12:19:33;29.20;35.10
81220;DHT22;70690;52.494;13.410;2023-07-30T12:22:02;28.90;34.70
81220;DHT22;70690;52.494;13.410;2023-07-30T12:24:27;28.90;34.90
81220;DHT22;70690;52.494;13.410;2023-07-30T12:26:53;29.10;35.00
81220;DHT22;70690;52.494;13.410;2023-07-30T12:29:19;29.30;33.70
81220;DHT22;70690;52.494;13.410;2023-07-30T12:31:45;28.90;34.30
81220;DHT22;70690;52.494;13.410;2023-07-30T12:34:12;28.50;35.50
81220;DHT22;70690;52.494;13.410;2023-07-30T12:36:37;27.90;36.20
81220;DHT22;70690;52.494;13.410;2023-07-30T12:39:03;27.50;36.40
81220;DHT22;70690;52.494;13.410;2023-07-30T12:41:29;27.50;36.60
81220;DHT22;70690;52.494;13.410;2023-07-30T12:43:56;27.50;36.50
81220;DHT22;70690;52.494;13.410;2023-07-30T12:46:23;27.50;37.90
81220;DHT22;70690;52.494;13.410;2023-07-30T12:48:49;27.60;36.90
81220;DHT22;70690;52.494;13.410;2023-07-30T12:51:14;27.60;37.00
81220;DHT22;70690;52.494;13.410;2023-07-30T12:53:40;27.40;38.10
81220;DHT22;70690;52.494;13.410;2023-07-30T12:56:06;26.90;37.90
81220;DHT22;70690;52.494;13.410;2023-07-30T12:58:32;26.80;38.50
81220;DHT22;70690;52.494;13.410;2023-07-30T13:00:58;26.90;38.10
81220;DHT22;70690;52.494;13.410;2023-07-30T13:03:24;26.90;38.50
81220;DHT22;70690;52.494;13.410;2023-07-30T13:05:49;26.80;37.90
81220;DHT22;70690;52.494;13.410;2023-07-30T13:08:15;26.80;39.50
81220;DHT22;70690;52.494;13.410;2023-07-30T13:10:41;27.00;39.30
81220;DHT22;70690;52.494;13.410;2023-07-30T13:13:07;27.10;37.70
81220;DHT22;70690;52.494;13.410;2023-07-30T13:15:32;26.90;38.80
81220;DHT22;70690;52.494;13.410;2023-07-30T13:17:58;26.70;37.80
81220;DHT22;70690;52.494;13.410;2023-07-30T13:20:24;26.90;37.40
81220;DHT22;70690;52.494;13.410;2023-07-30T13:22:50;27.10;36.50
81220;DHT22;70690;52.494;13.410;2023-07-30T13:25:17;27.00;35.70
81220;DHT22;70690;52.494;13.410;2023-07-30T13:27:43;26.40;36.50
81220;DHT22;70690;52.494;13.410;2023-07-30T13:30:09;26.50;38.20
81220;DHT22;70690;52.494;13.410;2023-07-30T13:32:34;26.60;37.30
81220;DHT22;70690;52.494;13.410;2023-07-30T13:35:00;26.50;37.10
81220;DHT22;70690;52.494;13.410;2023-07-30T13:37:26;26.70;36.90
81220;DHT22;70690;52.494;13.410;2023-07-30T13:39:52;26.80;36.70
81220;DHT22;70690;52.494;13.410;2023-07-30T13:42:17;26.90;35.90
81220;DHT22;70690;52.494;13.410;2023-07-30T13:44:43;26.90;36.30
81220;DHT22;70690;52.494;13.410;2023-07-30T13:47:09;26.40;35.90
81220;DHT22;70690;52.494;13.410;2023-07-30T13:49:35;26.20;36.90
81220;DHT22;70690;52.494;13.410;2023-07-30T13:52:01;26.00;35.30
81220;DHT22;70690;52.494;13.410;2023-07-30T13:54:27;26.20;35.70
81220;DHT22;70690;52.494;13.410;2023-07-30T13:56:53;26.40;35.10
81220;DHT22;70690;52.494;13.410;2023-07-30T13:59:19;26.40;34.60
81220;DHT22;70690;52.494;13.410;2023-07-30T14:01:44;26.10;35.50
81220;DHT22;70690;52.494;13.410;2023-07-30T14:04:10;25.90;36.00
81220;DHT22;70690;52.494;13.410;2023-07-30T14:06:36;25.70;36.00
81220;DHT22;70690;52.494;13.410;2023-07-30T14:09:02;25.40;36.00
81220;DHT22;70690;52.494;13.410;2023-07-30T14:11:29;25.30;36.80
81220;DHT22;70690;52.494;13.410;2023-07-30T14:13:56;25.10;37.10
81220;DHT22;70690;52.494;13.410;2023-07-30T14:16:23;25.10;37.30
81220;DHT22;70690;52.494;13.410;2023-07-30T14:18:49;25.10;37.80
81220;DHT22;70690;52.494;13.410;2023-07-30T14:21:15;25.00;38.10
81220;DHT22;70690;52.494;13.410;2023-07-30T14:23:41;24.80;38.70
81220;DHT22;70690;52.494;13.410;2023-07-30T14:26:07;24.70;39.80
81220;DHT22;70690;52.494;13.410;2023-07-30T14:28:33;24.60;43.00
81220;DHT22;70690;52.494;13.410;2023-07-30T14:30:58;24.30;43.80
81220;DHT22;70690;52.494;13.410;2023-07-30T14:33:24;23.70;46.90
81220;DHT22;70690;52.494;13.410;2023-07-30T14:35:50;23.30;48.00
81220;DHT22;70690;52.494;13.410;2023-07-30T14:38:16;23.10;47.70
81220;DHT22;70690;52.494;13.410;2023-07-30T14:40:43;22.80;47.70
81220;DHT22;70690;52.494;13.410;2023-07-30T14:43:09;22.70;50.60
81220;DHT22;70690;52.494;13.410;2023-07-30T14:45:35;22.50;53.10
81220;DHT22;70690;52.494;13.410;2023-07-30T14:48:00;22.10;51.50
81220;DHT22;70690;52.494;13.410;2023-07-30T14:50:26;22.00;52.60
81220;DHT22;70690;52.494;13.410;2023-07-30T14:52:53;22.00;55.20
81220;DHT22;70690;52.494;13.410;2023-07-30T14:55:18;21.80;52.10
81220;DHT22;70690;52.494;13.410;2023-07-30T14:57:44;21.70;52.10
81220;DHT22;70690;52.494;13.410;2023-07-30T15:00:11;21.40;53.50
81220;DHT22;70690;52.494;13.410;2023-07-30T15:02:39;21.10;56.00
81220;DHT22;70690;52.494;13.410;2023-07-30T15:05:06;20.90;58.10
81220;DHT22;70690;52.494;13.410;2023-07-30T15:07:32;20.70;59.20
81220;DHT22;70690;52.494;13.410;2023-07-30T15:09:58;20.40;61.50
81220;DHT22;70690;52.494;13.410;2023-07-30T15:12:24;20.30;63.30
81220;DHT22;70690;52.494;13.410;2023-07-30T15:14:50;20.20;63.80
81220;DHT22;70690;52.494;13.410;2023-07-30T15:17:16;20.20;64.80
81220;DHT22;70690;52.494;13.410;2023-07-30T15:19:41;20.00;64.50
81220;DHT22;70690;52.494;13.410;2023-07-30T15:22:07;19.90;64.20
81220;DHT22;70690;52.494;13.410;2023-07-30T15:24:33;19.90;67.90
81220;DHT22;70690;52.494;13.410;2023-07-30T15:26:58;20.00;65.60